Time;durP1;ratioP1;P1;durP2;ratioP2;P2;SDS_P1;SDS_P2;PMS_P1;PMS_P2;Temp;Humidity;BMP_temperature;BMP_pressure;BME280_temperature;BME280_humidity;BME280_pressure;Samples;Min_cycle;Max_cycle;Signal;HPM_P1;HPM_P2
2022/10/09 00:00:36;;;;;;;3.53;2.97;;;;;;;;;;4981842;28;20712;-86
2022/10/09 00:03:05;;;;;;;7.43;3.33;;;;;;;;;;4982233;28;20233;-86
2022/10/09 00:05:30;;;;;;;5.30;3.13;;;;;;;;;;5015169;28;20228;-86
2022/10/09 00:07:56;;;;;;;7.10;3.40;;;;;;;;;;4989328;28;20232;-86
2022/10/09 00:10:21;;;;;;;7.00;3.50;;;;;;;;;;4996131;28;20225;-84
2022/10/09 00:12:47;;;;;;;7.77;3.20;;;;;;;;;;4997444;28;20225;-85
2022/10/09 00:15:12;;;;;;;7.13;3.20;;;;;;;;;;4987608;28;20312;-86
2022/10/09 00:17:38;;;;;;;8.87;3.20;;;;;;;;;;5003112;28;20239;-86
2022/10/09 00:20:04;;;;;;;8.57;3.10;;;;;;;;;;5005098;28;20243;-85
2022/10/09 00:22:32;;;;;;;5.73;3.50;;;;;;;;;;4982762;28;20217;-86
2022/10/09 00:24:58;;;;;;;7.30;3.47;;;;;;;;;;4982142;28;20221;-86
2022/10/09 00:27:23;;;;;;;11.07;3.77;;;;;;;;;;4998242;28;20227;-87
2022/10/09 00:29:51;;;;;;;8.70;3.67;;;;;;;;;;4982686;28;20319;-87
2022/10/09 00:32:19;;;;;;;3.60;2.80;;;;;;;;;;4997059;28;20279;-86
2022/10/09 00:34:47;;;;;;;3.07;2.83;;;;;;;;;;4967677;28;20232;-87
2022/10/09 00:37:13;;;;;;;7.37;2.50;;;;;;;;;;4983348;28;20384;-87
2022/10/09 00:39:38;;;;;;;5.03;2.60;;;;;;;;;;4983596;28;20231;-87
2022/10/09 00:42:04;;;;;;;7.03;2.73;;;;;;;;;;4999558;28;20223;-87
2022/10/09 00:44:58;;;;;;;2.17;1.87;;;;;;;;;;4982697;28;20261;-88
2022/10/09 00:47:41;;;;;;;5.00;2.40;;;;;;;;;;4981940;28;20220;-86
2022/10/09 00:50:42;;;;;;;4.90;2.40;;;;;;;;;;4983356;28;20237;-86
2022/10/09 00:53:08;;;;;;;3.63;2.17;;;;;;;;;;4997240;28;20225;-87
2022/10/09 00:55:36;;;;;;;5.20;2.67;;;;;;;;;;4965826;28;20209;-86
2022/10/09 00:58:04;;;;;;;9.27;2.90;;;;;;;;;;4999012;28;20221;-86
2022/10/09 01:00:29;;;;;;;5.17;2.50;;;;;;;;;;4997633;28;20670;-87
2022/10/09 01:02:57;;;;;;;6.47;2.20;;;;;;;;;;4967015;28;20295;-87
2022/10/09 01:05:29;;;;;;;3.07;2.63;;;;;;;;;;4966762;28;20234;-88
2022/10/09 01:08:00;;;;;;;4.27;2.60;;;;;;;;;;4966261;28;20240;-87
2022/10/09 01:10:29;;;;;;;2.57;2.03;;;;;;;;;;4981679;28;20231;-88
2022/10/09 01:13:19;;;;;;;3.97;2.70;;;;;;;;;;4981752;28;20233;-86
2022/10/09 01:16:03;;;;;;;6.63;2.70;;;;;;;;;;4998531;28;20228;-86
2022/10/09 01:18:28;;;;;;;5.10;2.60;;;;;;;;;;5021146;28;20416;-86
2022/10/09 01:21:14;;;;;;;8.63;2.80;;;;;;;;;;5029424;28;20233;-86
2022/10/09 01:24:06;;;;;;;3.70;2.37;;;;;;;;;;4981739;28;20356;-86
2022/10/09 01:26:59;;;;;;;3.23;2.90;;;;;;;;;;4991147;28;20274;-87
2022/10/09 01:29:29;;;;;;;3.20;2.63;;;;;;;;;;5019113;28;20244;-88
2022/10/09 01:31:55;;;;;;;7.20;2.97;;;;;;;;;;4986140;28;20236;-88
2022/10/09 01:34:20;;;;;;;2.43;2.23;;;;;;;;;;4984478;28;20307;-88
2022/10/09 01:36:48;;;;;;;4.63;2.50;;;;;;;;;;4984158;28;20710;-87
2022/10/09 01:39:21;;;;;;;2.87;2.50;;;;;;;;;;4985345;28;20283;-88
2022/10/09 01:41:49;;;;;;;4.30;2.90;;;;;;;;;;4968235;28;20221;-88
2022/10/09 01:44:22;;;;;;;5.07;2.60;;;;;;;;;;4984244;28;20225;-88
2022/10/09 01:46:47;;;;;;;2.80;2.50;;;;;;;;;;5016998;28;20355;-87
2022/10/09 01:49:40;;;;;;;4.00;2.40;;;;;;;;;;4984114;28;20568;-87
2022/10/09 01:53:03;;;;;;;3.10;2.30;;;;;;;;;;5001059;28;20225;-86
2022/10/09 01:55:40;;;;;;;3.30;2.23;;;;;;;;;;4961080;28;20232;-85
2022/10/09 01:58:09;;;;;;;5.47;2.20;;;;;;;;;;4959649;28;20277;-88
2022/10/09 02:00:47;;;;;;;3.50;2.43;;;;;;;;;;4973557;28;20639;-88
2022/10/09 02:03:16;;;;;;;3.73;2.30;;;;;;;;;;4999410;23;20225;-76
2022/10/09 02:05:45;;;;;;;5.37;2.07;;;;;;;;;;5000319;28;20228;-77
2022/10/09 02:08:11;;;;;;;2.20;2.10;;;;;;;;;;4984501;28;20236;-76
2022/10/09 02:10:39;;;;;;;1.70;1.60;;;;;;;;;;4975045;28;20573;-76
2022/10/09 02:13:07;;;;;;;3.20;1.80;;;;;;;;;;4985351;28;20307;-76
2022/10/09 02:15:45;;;;;;;1.90;1.80;;;;;;;;;;4984123;28;20228;-77
2022/10/09 02:18:11;;;;;;;2.40;1.80;;;;;;;;;;4993856;28;20298;-76
2022/10/09 02:20:42;;;;;;;3.17;1.70;;;;;;;;;;4985210;28;20225;-76
2022/10/09 02:23:07;;;;;;;2.80;1.60;;;;;;;;;;4982058;28;20224;-77
2022/10/09 02:25:33;;;;;;;2.20;1.70;;;;;;;;;;5001842;28;20223;-78
2022/10/09 02:28:01;;;;;;;2.90;1.70;;;;;;;;;;4982720;28;20235;-76
2022/10/09 02:30:32;;;;;;;2.13;1.70;;;;;;;;;;5001009;28;20220;-76
2022/10/09 02:32:58;;;;;;;5.63;1.80;;;;;;;;;;5000055;28;20320;-76
2022/10/09 02:35:25;;;;;;;4.33;2.10;;;;;;;;;;5000087;28;20225;-76
2022/10/09 02:37:51;;;;;;;4.63;1.90;;;;;;;;;;4999335;28;20323;-76
2022/10/09 02:40:19;;;;;;;5.30;2.13;;;;;;;;;;4997481;28;20296;-76
2022/10/09 02:42:49;;;;;;;2.90;2.17;;;;;;;;;;5009899;28;20626;-76
2022/10/09 02:45:17;;;;;;;2.67;1.97;;;;;;;;;;5019556;28;20233;-77
2022/10/09 02:47:44;;;;;;;6.63;2.00;;;;;;;;;;4998936;28;20220;-76
2022/10/09 02:50:12;;;;;;;5.00;2.10;;;;;;;;;;5001586;28;20240;-77
2022/10/09 02:52:37;;;;;;;2.20;1.90;;;;;;;;;;5000203;28;20234;-75
2022/10/09 02:55:03;;;;;;;3.30;1.67;;;;;;;;;;5010137;28;20220;-76
2022/10/09 02:57:31;;;;;;;2.83;2.07;;;;;;;;;;4995868;28;20311;-76
2022/10/09 03:00:06;;;;;;;2.00;1.80;;;;;;;;;;4998407;28;20248;-76
2022/10/09 03:02:31;;;;;;;1.83;1.53;;;;;;;;;;5018362;28;20235;-75
2022/10/09 03:04:56;;;;;;;4.53;2.13;;;;;;;;;;5000543;28;20224;-76
2022/10/09 03:07:25;;;;;;;3.80;2.27;;;;;;;;;;5015389;28;20232;-76
2022/10/09 03:09:53;;;;;;;6.10;2.10;;;;;;;;;;5017633;28;20899;-74
2022/10/09 03:12:20;;;;;;;3.93;2.43;;;;;;;;;;4981723;28;20574;-77
2022/10/09 03:14:48;;;;;;;3.17;2.17;;;;;;;;;;4981696;28;20282;-76
2022/10/09 03:17:18;;;;;;;4.50;2.30;;;;;;;;;;4997655;28;20772;-76
2022/10/09 03:19:46;;;;;;;7.10;2.30;;;;;;;;;;5016856;28;20312;-76
2022/10/09 03:22:16;;;;;;;3.70;1.90;;;;;;;;;;4980579;28;20670;-76
2022/10/09 03:24:44;;;;;;;2.33;1.70;;;;;;;;;;5012548;28;20251;-76
2022/10/09 03:27:10;;;;;;;5.57;2.10;;;;;;;;;;4993803;28;20229;-76
2022/10/09 03:29:37;;;;;;;5.37;2.60;;;;;;;;;;5013040;28;20236;-77
2022/10/09 03:32:03;;;;;;;3.23;2.00;;;;;;;;;;5000452;28;20235;-77
2022/10/09 03:34:30;;;;;;;3.03;2.03;;;;;;;;;;4978824;28;20853;-76
2022/10/09 03:36:58;;;;;;;4.37;2.40;;;;;;;;;;4982037;28;20224;-76
2022/10/09 03:39:27;;;;;;;3.90;1.97;;;;;;;;;;4998296;28;20651;-77
2022/10/09 03:41:52;;;;;;;3.07;1.93;;;;;;;;;;4996136;28;20228;-77
2022/10/09 03:44:18;;;;;;;3.80;1.87;;;;;;;;;;5001359;28;20311;-75
2022/10/09 03:46:46;;;;;;;3.83;1.73;;;;;;;;;;5009335;28;20686;-76
2022/10/09 03:49:12;;;;;;;3.50;1.60;;;;;;;;;;4992593;28;20234;-77
2022/10/09 03:51:42;;;;;;;3.23;1.60;;;;;;;;;;5014579;28;20278;-76
2022/10/09 03:54:07;;;;;;;4.23;1.90;;;;;;;;;;4997119;28;20235;-76
2022/10/09 03:56:35;;;;;;;3.47;1.70;;;;;;;;;;4998602;28;20221;-77
2022/10/09 03:59:06;;;;;;;1.63;1.50;;;;;;;;;;5000601;28;20239;-76
2022/10/09 04:01:34;;;;;;;2.20;1.60;;;;;;;;;;5014380;28;20230;-75
2022/10/09 04:03:59;;;;;;;7.93;2.00;;;;;;;;;;5003513;28;20764;-76
2022/10/09 04:06:28;;;;;;;5.53;2.30;;;;;;;;;;4997391;28;20217;-75
2022/10/09 04:08:56;;;;;;;7.70;2.03;;;;;;;;;;5014924;28;20367;-74
2022/10/09 04:11:26;;;;;;;3.43;2.07;;;;;;;;;;4999221;28;20281;-76
2022/10/09 04:13:53;;;;;;;5.13;1.80;;;;;;;;;;4996913;28;20220;-75
2022/10/09 04:16:21;;;;;;;4.20;1.90;;;;;;;;;;5012233;28;20220;-75
2022/10/09 04:18:49;;;;;;;6.03;2.00;;;;;;;;;;5010805;28;20689;-76
2022/10/09 04:21:15;;;;;;;1.80;1.70;;;;;;;;;;4999211;28;20592;-75
2022/10/09 04:23:42;;;;;;;3.47;1.93;;;;;;;;;;4998355;28;20240;-76
2022/10/09 04:26:11;;;;;;;9.47;2.03;;;;;;;;;;4997533;28;20232;-75
2022/10/09 04:28:39;;;;;;;3.90;1.60;;;;;;;;;;4994425;28;20315;-75
2022/10/09 04:31:08;;;;;;;3.87;2.23;;;;;;;;;;4982232;28;20228;-75
2022/10/09 04:33:34;;;;;;;5.90;2.27;;;;;;;;;;4962091;28;20227;-76
2022/10/09 04:36:02;;;;;;;2.90;1.97;;;;;;;;;;5013610;28;20303;-76
2022/10/09 04:38:30;;;;;;;4.13;1.80;;;;;;;;;;5012853;28;20216;-75
2022/10/09 04:41:02;;;;;;;3.33;2.10;;;;;;;;;;4992781;28;20229;-76
2022/10/09 04:43:27;;;;;;;4.90;2.40;;;;;;;;;;4990837;28;20220;-78
2022/10/09 04:45:53;;;;;;;5.03;2.63;;;;;;;;;;5014351;28;20226;-76
2022/10/09 04:48:18;;;;;;;8.03;2.97;;;;;;;;;;5015283;28;20701;-76
2022/10/09 04:50:46;;;;;;;3.80;2.57;;;;;;;;;;5000198;28;20227;-76
2022/10/09 04:53:15;;;;;;;6.70;2.50;;;;;;;;;;4983009;28;20582;-76
2022/10/09 04:55:45;;;;;;;7.13;2.77;;;;;;;;;;5013448;28;20238;-76
2022/10/09 04:58:16;;;;;;;4.40;2.63;;;;;;;;;;4994696;28;20690;-76
2022/10/09 05:00:43;;;;;;;5.10;2.43;;;;;;;;;;4995822;28;20221;-76
2022/10/09 05:03:08;;;;;;;5.27;2.77;;;;;;;;;;5019410;28;20740;-76
2022/10/09 05:05:34;;;;;;;4.67;2.93;;;;;;;;;;4997237;28;20228;-75
2022/10/09 05:08:04;;;;;;;7.03;3.00;;;;;;;;;;5000950;28;20252;-76
2022/10/09 05:10:33;;;;;;;5.33;2.67;;;;;;;;;;4968598;28;20737;-75
2022/10/09 05:12:58;;;;;;;14.77;3.50;;;;;;;;;;5000691;28;20232;-75
2022/10/09 05:15:24;;;;;;;6.60;2.93;;;;;;;;;;4989415;28;20522;-75
2022/10/09 05:17:51;;;;;;;4.33;3.50;;;;;;;;;;4994522;28;20719;-75
2022/10/09 05:20:19;;;;;;;7.80;4.67;;;;;;;;;;4992852;28;20217;-74
2022/10/09 05:22:47;;;;;;;7.40;3.67;;;;;;;;;;5010196;28;20224;-73
2022/10/09 05:25:13;;;;;;;12.93;10.43;;;;;;;;;;4998695;28;20274;-76
2022/10/09 05:27:41;;;;;;;21.63;12.97;;;;;;;;;;4982735;28;20232;-76
2022/10/09 05:30:07;;;;;;;13.40;5.63;;;;;;;;;;5012920;28;20778;-77
2022/10/09 05:32:33;;;;;;;7.80;4.57;;;;;;;;;;4986552;28;20608;-75
2022/10/09 05:34:58;;;;;;;9.30;2.50;;;;;;;;;;5001329;28;20229;-75
2022/10/09 05:37:26;;;;;;;7.57;2.90;;;;;;;;;;5002319;28;20232;-75
2022/10/09 05:39:54;;;;;;;4.60;2.53;;;;;;;;;;4998296;28;20367;-75
2022/10/09 05:42:21;;;;;;;2.87;1.93;;;;;;;;;;5014518;28;20252;-75
2022/10/09 05:44:47;;;;;;;6.77;2.60;;;;;;;;;;5002529;28;20228;-76
2022/10/09 05:47:16;;;;;;;4.20;2.17;;;;;;;;;;5017947;28;20282;-75
2022/10/09 05:49:42;;;;;;;5.27;2.27;;;;;;;;;;4982634;28;20251;-75
2022/10/09 05:52:09;;;;;;;5.90;2.63;;;;;;;;;;4988936;28;20581;-76
2022/10/09 05:54:35;;;;;;;3.93;2.30;;;;;;;;;;4985576;28;20233;-74
2022/10/09 05:57:05;;;;;;;3.07;2.50;;;;;;;;;;5006028;28;20596;-75
2022/10/09 05:59:30;;;;;;;5.90;4.40;;;;;;;;;;5006624;28;20220;-77
2022/10/09 06:01:59;;;;;;;10.97;8.03;;;;;;;;;;5001987;28;20789;-75
2022/10/09 06:04:29;;;;;;;5.17;2.80;;;;;;;;;;4979439;28;20273;-76
2022/10/09 06:06:57;;;;;;;2.43;2.23;;;;;;;;;;5016276;28;20600;-76
2022/10/09 06:09:24;;;;;;;5.07;2.20;;;;;;;;;;4983254;28;20268;-76
2022/10/09 06:11:53;;;;;;;6.60;2.50;;;;;;;;;;5001790;28;20219;-75
2022/10/09 06:14:20;;;;;;;10.27;3.10;;;;;;;;;;4981185;28;20745;-74
2022/10/09 06:16:46;;;;;;;7.53;2.93;;;;;;;;;;5014923;28;20790;-74
2022/10/09 06:19:18;;;;;;;10.17;2.87;;;;;;;;;;4985120;28;20678;-74
2022/10/09 06:21:46;;;;;;;10.53;3.10;;;;;;;;;;4965349;28;20743;-74
2022/10/09 06:24:22;;;;;;;8.57;3.00;;;;;;;;;;4993805;28;20228;-74
2022/10/09 06:26:54;;;;;;;8.90;3.23;;;;;;;;;;4995365;28;20247;-74
2022/10/09 06:29:20;;;;;;;6.73;3.13;;;;;;;;;;4997855;28;20303;-74
2022/10/09 06:31:45;;;;;;;10.77;3.90;;;;;;;;;;4994851;28;20307;-73
2022/10/09 06:34:11;;;;;;;11.17;3.47;;;;;;;;;;5012520;28;20588;-75
2022/10/09 06:36:36;;;;;;;10.00;3.37;;;;;;;;;;4999301;28;20761;-74
2022/10/09 06:39:05;;;;;;;6.00;3.23;;;;;;;;;;5001906;28;20220;-75
2022/10/09 06:41:31;;;;;;;11.20;3.60;;;;;;;;;;4985714;28;20311;-74
2022/10/09 06:44:11;;;;;;;14.37;4.40;;;;;;;;;;4985464;28;20647;-74
2022/10/09 06:46:40;;;;;;;12.10;5.90;;;;;;;;;;4993628;28;20224;-74
2022/10/09 06:49:06;;;;;;;10.13;7.07;;;;;;;;;;4978141;28;20224;-75
2022/10/09 06:51:37;;;;;;;9.80;6.17;;;;;;;;;;4980606;28;20226;-74
2022/10/09 06:54:10;;;;;;;8.43;6.63;;;;;;;;;;4971929;28;20275;-75
2022/10/09 06:56:43;;;;;;;11.30;8.50;;;;;;;;;;5000785;28;20710;-75
2022/10/09 06:59:11;;;;;;;14.30;9.43;;;;;;;;;;4995085;28;20221;-75
2022/10/09 07:01:36;;;;;;;8.57;4.70;;;;;;;;;;5002064;28;20219;-74
2022/10/09 07:04:05;;;;;;;10.40;6.00;;;;;;;;;;5010518;28;20220;-75
2022/10/09 07:06:35;;;;;;;8.40;5.73;;;;;;;;;;4980806;28;20682;-75
2022/10/09 07:09:05;;;;;;;10.43;5.73;;;;;;;;;;4983706;28;20228;-74
2022/10/09 07:11:35;;;;;;;14.43;7.53;;;;;;;;;;4995919;28;20295;-75
2022/10/09 07:14:11;;;;;;;11.30;8.77;;;;;;;;;;4978592;28;20231;-75
2022/10/09 07:16:41;;;;;;;7.17;6.10;;;;;;;;;;5005273;28;20741;-74
2022/10/09 07:19:09;;;;;;;6.90;6.17;;;;;;;;;;4981746;28;20729;-74
2022/10/09 07:21:38;;;;;;;9.23;6.40;;;;;;;;;;5011782;28;20241;-74
2022/10/09 07:24:07;;;;;;;7.60;6.23;;;;;;;;;;5013350;28;20224;-74
2022/10/09 07:26:36;;;;;;;7.57;5.63;;;;;;;;;;5000137;28;20592;-75
2022/10/09 07:29:03;;;;;;;11.47;6.53;;;;;;;;;;4999925;28;20225;-74
2022/10/09 07:31:28;;;;;;;8.27;6.03;;;;;;;;;;4998335;28;20227;-75
2022/10/09 07:33:55;;;;;;;6.60;5.17;;;;;;;;;;4986348;28;20248;-73
2022/10/09 07:36:25;;;;;;;6.60;5.50;;;;;;;;;;4983427;28;20228;-75
2022/10/09 07:38:52;;;;;;;8.20;5.50;;;;;;;;;;4982711;28;20725;-74
2022/10/09 07:41:18;;;;;;;8.10;6.07;;;;;;;;;;4976407;28;20217;-74
2022/10/09 07:43:44;;;;;;;9.00;5.57;;;;;;;;;;5025094;28;20717;-74
2022/10/09 07:46:14;;;;;;;7.20;5.40;;;;;;;;;;4994636;28;20319;-75
2022/10/09 07:48:40;;;;;;;8.67;6.20;;;;;;;;;;4992605;28;20221;-74
2022/10/09 07:51:16;;;;;;;8.43;5.57;;;;;;;;;;5012055;28;20224;-75
2022/10/09 07:53:41;;;;;;;7.43;5.90;;;;;;;;;;5028002;28;20227;-74
2022/10/09 07:56:16;;;;;;;6.70;6.00;;;;;;;;;;5008129;28;20229;-74
2022/10/09 07:58:42;;;;;;;8.00;5.80;;;;;;;;;;4979668;28;20223;-74
2022/10/09 08:01:08;;;;;;;13.37;6.73;;;;;;;;;;4996783;28;20264;-75
2022/10/09 08:03:34;;;;;;;9.07;6.90;;;;;;;;;;4976657;28;20296;-76
2022/10/09 08:06:00;;;;;;;9.40;6.77;;;;;;;;;;4995601;28;20228;-76
2022/10/09 08:08:31;;;;;;;11.30;6.97;;;;;;;;;;4994625;28;20232;-76
2022/10/09 08:10:59;;;;;;;11.00;7.10;;;;;;;;;;4994114;28;20253;-76
2022/10/09 08:13:25;;;;;;;7.27;6.53;;;;;;;;;;4993183;28;20220;-75
2022/10/09 08:15:53;;;;;;;13.53;7.47;;;;;;;;;;4997988;28;20225;-74
2022/10/09 08:18:20;;;;;;;7.80;6.77;;;;;;;;;;4981777;28;20227;-76
2022/10/09 08:20:57;;;;;;;7.33;6.47;;;;;;;;;;4959103;28;20300;-76
2022/10/09 08:23:25;;;;;;;9.17;6.93;;;;;;;;;;4994346;28;20258;-74
2022/10/09 08:25:51;;;;;;;8.67;6.43;;;;;;;;;;4990750;28;20298;-75
2022/10/09 08:28:16;;;;;;;8.57;6.23;;;;;;;;;;4983377;28;20225;-76
2022/10/09 08:30:44;;;;;;;8.90;5.87;;;;;;;;;;4999018;28;20657;-76
2022/10/09 08:33:12;;;;;;;7.87;6.13;;;;;;;;;;5013247;28;20316;-76
2022/10/09 08:35:40;;;;;;;9.10;6.03;;;;;;;;;;5011997;28;20355;-76
2022/10/09 08:38:10;;;;;;;7.73;6.10;;;;;;;;;;5013030;28;20217;-76
2022/10/09 08:40:59;;;;;;;8.03;5.43;;;;;;;;;;4996846;28;20243;-75
2022/10/09 08:43:30;;;;;;;9.40;5.40;;;;;;;;;;4997445;28;20220;-75
2022/10/09 08:45:59;;;;;;;6.60;5.30;;;;;;;;;;4997984;28;20224;-75
2022/10/09 08:48:27;;;;;;;6.90;5.10;;;;;;;;;;4979387;28;20705;-75
2022/10/09 08:50:55;;;;;;;8.90;4.80;;;;;;;;;;5013379;28;20227;-75
2022/10/09 08:53:38;;;;;;;6.40;4.13;;;;;;;;;;4993270;28;20283;-75
2022/10/09 08:56:08;;;;;;;7.13;4.07;;;;;;;;;;4981434;28;20229;-74
2022/10/09 08:58:37;;;;;;;5.70;4.10;;;;;;;;;;4998325;28;20632;-76
2022/10/09 09:01:27;;;;;;;8.90;3.70;;;;;;;;;;4998418;28;20244;-75
2022/10/09 09:03:58;;;;;;;5.13;3.27;;;;;;;;;;5028715;28;20228;-75
2022/10/09 09:06:50;;;;;;;9.93;3.60;;;;;;;;;;5031136;28;20311;-76
2022/10/09 09:09:43;;;;;;;5.27;2.80;;;;;;;;;;5017308;28;20216;-76
2022/10/09 09:12:22;;;;;;;6.47;2.80;;;;;;;;;;4996135;28;20231;-75
2022/10/09 09:15:17;;;;;;;4.83;2.70;;;;;;;;;;5008486;28;20251;-74
2022/10/09 09:18:11;;;;;;;5.63;2.90;;;;;;;;;;5011139;28;20302;-76
2022/10/09 09:20:53;;;;;;;4.20;2.43;;;;;;;;;;5006234;28;20703;-76
2022/10/09 09:23:28;;;;;;;6.70;2.40;;;;;;;;;;5008888;28;20229;-75
2022/10/09 09:25:58;;;;;;;7.43;2.60;;;;;;;;;;4999357;28;20258;-75
2022/10/09 09:28:35;;;;;;;6.40;2.43;;;;;;;;;;5008987;28;20295;-75
2022/10/09 09:31:11;;;;;;;4.27;1.97;;;;;;;;;;4998418;28;20722;-75
2022/10/09 09:33:55;;;;;;;10.13;2.63;;;;;;;;;;5013138;28;20229;-75
2022/10/09 09:36:23;;;;;;;4.43;1.97;;;;;;;;;;4996223;28;20700;-73
2022/10/09 09:38:51;;;;;;;4.20;1.87;;;;;;;;;;5014073;28;20702;-74
2022/10/09 09:41:19;;;;;;;6.93;2.30;;;;;;;;;;5029892;28;20614;-73
2022/10/09 09:43:45;;;;;;;5.30;1.80;;;;;;;;;;4984322;28;20223;-74
2022/10/09 09:46:18;;;;;;;9.30;1.87;;;;;;;;;;5012219;28;20237;-74
2022/10/09 09:48:47;;;;;;;5.20;2.00;;;;;;;;;;5014834;28;20608;-75
2022/10/09 09:51:23;;;;;;;7.67;1.73;;;;;;;;;;5032547;28;20270;-74
2022/10/09 09:53:55;;;;;;;7.17;2.00;;;;;;;;;;5005549;28;20224;-74
2022/10/09 09:56:41;;;;;;;4.67;1.67;;;;;;;;;;4994247;28;20241;-74
2022/10/09 09:59:44;;;;;;;8.43;2.07;;;;;;;;;;4981589;28;20278;-74
2022/10/09 10:02:22;;;;;;;3.83;1.53;;;;;;;;;;4996037;28;20256;-74
2022/10/09 10:05:22;;;;;;;4.73;1.50;;;;;;;;;;4981461;28;20598;-74
2022/10/09 10:07:51;;;;;;;3.63;1.50;;;;;;;;;;5017494;28;20224;-75
2022/10/09 10:10:21;;;;;;;3.63;1.60;;;;;;;;;;4982657;28;20315;-74
2022/10/09 10:12:52;;;;;;;5.23;1.63;;;;;;;;;;5010819;28;20310;-75
2022/10/09 10:15:28;;;;;;;4.20;1.30;;;;;;;;;;5001296;28;20221;-73
2022/10/09 10:17:57;;;;;;;4.30;1.30;;;;;;;;;;5016153;28;20683;-73
2022/10/09 10:20:22;;;;;;;4.77;1.13;;;;;;;;;;5014023;28;20302;-73
2022/10/09 10:22:55;;;;;;;5.37;1.37;;;;;;;;;;4997559;28;20236;-74
2022/10/09 10:25:24;;;;;;;5.43;1.53;;;;;;;;;;4998752;28;20298;-74
2022/10/09 10:27:53;;;;;;;5.20;1.93;;;;;;;;;;4997604;28;20224;-74
2022/10/09 10:30:18;;;;;;;6.28;2.10;;;;;;;;;;5015572;28;20319;-75
2022/10/09 10:32:55;;;;;;;6.72;4.40;;;;;;;;;;5011014;28;20223;-74
2022/10/09 10:35:29;;;;;;;4.78;2.00;;;;;;;;;;5017230;28;20224;-74
2022/10/09 10:38:26;;;;;;;3.97;1.70;;;;;;;;;;4998187;28;20294;-74
2022/10/09 10:40:55;;;;;;;4.47;2.00;;;;;;;;;;5015154;28;21178;-75
2022/10/09 10:43:41;;;;;;;7.30;1.80;;;;;;;;;;5016265;28;20248;-74
2022/10/09 10:46:17;;;;;;;4.40;1.48;;;;;;;;;;5001014;28;20299;-74
2022/10/09 10:48:47;;;;;;;4.57;1.55;;;;;;;;;;5000646;28;20319;-76
2022/10/09 10:51:12;;;;;;;4.85;1.70;;;;;;;;;;4998304;28;20220;-75
2022/10/09 10:54:08;;;;;;;4.95;1.45;;;;;;;;;;5015388;28;20603;-74
2022/10/09 10:56:36;;;;;;;2.03;1.20;;;;;;;;;;5032407;28;20232;-75
2022/10/09 10:59:41;;;;;;;4.32;1.60;;;;;;;;;;5005716;28;20248;-76
2022/10/09 11:02:28;;;;;;;5.03;1.08;;;;;;;;;;5018615;28;20231;-75
2022/10/09 11:05:28;;;;;;;3.70;1.13;;;;;;;;;;4996016;28;20236;-75
2022/10/09 11:08:12;;;;;;;3.80;1.20;;;;;;;;;;5012403;28;20232;-75
2022/10/09 11:10:41;;;;;;;3.08;1.20;;;;;;;;;;5030084;28;20668;-75
2022/10/09 11:13:20;;;;;;;4.43;1.38;;;;;;;;;;4997267;28;20232;-75
2022/10/09 11:15:48;;;;;;;3.40;1.30;;;;;;;;;;4998431;28;20231;-75
2022/10/09 11:18:18;;;;;;;4.82;1.30;;;;;;;;;;5014915;28;20246;-76
2022/10/09 11:20:55;;;;;;;5.45;1.10;;;;;;;;;;5015219;28;20232;-75
2022/10/09 11:23:41;;;;;;;2.47;1.10;;;;;;;;;;5013716;28;20271;-74
2022/10/09 11:26:07;;;;;;;3.33;1.65;;;;;;;;;;5018330;28;20231;-74
2022/10/09 11:28:47;;;;;;;3.42;1.15;;;;;;;;;;5016661;28;20870;-74
2022/10/09 11:31:33;;;;;;;3.25;1.13;;;;;;;;;;4998182;28;20765;-73
2022/10/09 11:34:02;;;;;;;3.58;1.50;;;;;;;;;;5008930;28;20279;-73
2022/10/09 11:36:39;;;;;;;4.05;1.35;;;;;;;;;;4963480;28;20239;-73
2022/10/09 11:39:16;;;;;;;2.75;1.40;;;;;;;;;;4999144;28;20224;-74
2022/10/09 11:41:45;;;;;;;5.75;1.38;;;;;;;;;;5002706;28;20301;-73
2022/10/09 11:44:24;;;;;;;3.10;1.30;;;;;;;;;;5000560;28;20224;-74
2022/10/09 11:46:58;;;;;;;3.90;1.33;;;;;;;;;;5000386;28;20240;-74
2022/10/09 11:49:36;;;;;;;3.92;1.40;;;;;;;;;;4997380;28;20757;-73
2022/10/09 11:52:08;;;;;;;2.28;0.93;;;;;;;;;;4997382;28;20234;-74
2022/10/09 11:54:34;;;;;;;3.42;1.30;;;;;;;;;;5016111;28;20223;-74
2022/10/09 11:57:00;;;;;;;4.82;1.20;;;;;;;;;;4963076;28;20312;-75
2022/10/09 11:59:30;;;;;;;4.15;1.38;;;;;;;;;;4997288;28;20316;-74
2022/10/09 12:01:59;;;;;;;4.22;1.10;;;;;;;;;;4999105;28;20220;-75
2022/10/09 12:04:31;;;;;;;2.13;1.15;;;;;;;;;;4982454;28;20232;-74
2022/10/09 12:07:08;;;;;;;5.28;1.10;;;;;;;;;;4997377;28;20235;-74
2022/10/09 12:09:40;;;;;;;2.42;1.40;;;;;;;;;;4994397;28;20232;-75
2022/10/09 12:12:08;;;;;;;3.25;1.27;;;;;;;;;;4979969;28;20248;-75
2022/10/09 12:14:37;;;;;;;2.35;1.10;;;;;;;;;;4995411;28;20224;-75
2022/10/09 12:17:33;;;;;;;5.72;1.63;;;;;;;;;;4994884;28;20295;-74
2022/10/09 12:20:15;;;;;;;5.72;1.33;;;;;;;;;;4984831;28;20370;-74
2022/10/09 12:22:46;;;;;;;5.85;1.30;;;;;;;;;;4983416;28;20232;-75
2022/10/09 12:25:29;;;;;;;4.63;1.33;;;;;;;;;;4998247;28;20304;-74
2022/10/09 12:27:58;;;;;;;7.50;1.30;;;;;;;;;;4997879;28;20323;-74
2022/10/09 12:30:33;;;;;;;4.25;1.45;;;;;;;;;;5012550;28;20264;-74
2022/10/09 12:33:06;;;;;;;2.38;1.00;;;;;;;;;;4981260;28;20255;-74
2022/10/09 12:35:40;;;;;;;2.47;0.88;;;;;;;;;;4983065;28;20228;-74
2022/10/09 12:38:24;;;;;;;4.07;1.10;;;;;;;;;;4996965;28;20601;-75
2022/10/09 12:40:49;;;;;;;4.30;1.40;;;;;;;;;;4992300;28;20224;-74
2022/10/09 12:43:16;;;;;;;3.40;1.42;;;;;;;;;;4976451;28;20223;-74
2022/10/09 12:45:44;;;;;;;2.85;1.27;;;;;;;;;;4972640;28;20233;-76
2022/10/09 12:48:11;;;;;;;2.85;1.00;;;;;;;;;;4992331;28;20228;-75
2022/10/09 12:50:41;;;;;;;5.07;1.45;;;;;;;;;;4998784;28;20286;-75
2022/10/09 12:53:17;;;;;;;4.43;1.17;;;;;;;;;;4982182;28;20252;-73
2022/10/09 12:55:49;;;;;;;4.07;1.55;;;;;;;;;;5010544;28;20634;-74
2022/10/09 12:58:17;;;;;;;10.57;1.42;;;;;;;;;;4980843;28;20224;-75
2022/10/09 13:00:44;;;;;;;4.15;1.30;;;;;;;;;;4988285;28;20248;-74
2022/10/09 13:03:22;;;;;;;2.30;1.33;;;;;;;;;;4994112;28;20231;-76
2022/10/09 13:05:50;;;;;;;2.90;1.25;;;;;;;;;;5000413;28;20307;-72
2022/10/09 13:08:35;;;;;;;2.80;1.05;;;;;;;;;;4995179;28;20374;-75
2022/10/09 13:11:22;;;;;;;6.80;1.20;;;;;;;;;;5000209;28;20275;-76
2022/10/09 13:13:51;;;;;;;1.83;0.90;;;;;;;;;;5027018;28;20231;-76
2022/10/09 13:16:21;;;;;;;4.05;1.30;;;;;;;;;;4997339;28;20235;-75
2022/10/09 13:19:00;;;;;;;4.15;1.20;;;;;;;;;;4997051;28;20224;-76
2022/10/09 13:21:34;;;;;;;2.30;1.02;;;;;;;;;;4979250;28;20979;-75
2022/10/09 13:24:14;;;;;;;2.35;0.93;;;;;;;;;;5001981;28;20224;-74
2022/10/09 13:26:42;;;;;;;2.42;1.20;;;;;;;;;;4984432;28;20591;-75
2022/10/09 13:29:07;;;;;;;1.15;0.80;;;;;;;;;;5017804;28;20221;-74
2022/10/09 13:31:35;;;;;;;2.88;1.08;;;;;;;;;;4999129;28;20228;-75
2022/10/09 13:34:08;;;;;;;2.50;1.10;;;;;;;;;;5015015;28;20278;-75
2022/10/09 13:36:34;;;;;;;3.22;1.15;;;;;;;;;;4982597;28;20235;-74
2022/10/09 13:39:00;;;;;;;3.47;1.10;;;;;;;;;;5007838;28;20220;-75
2022/10/09 13:41:25;;;;;;;2.08;1.13;;;;;;;;;;5034400;28;20706;-74
2022/10/09 13:43:51;;;;;;;3.40;1.30;;;;;;;;;;4981460;28;20748;-75
2022/10/09 13:46:22;;;;;;;2.83;1.15;;;;;;;;;;4982252;28;20228;-77
2022/10/09 13:48:49;;;;;;;3.10;1.33;;;;;;;;;;4999957;28;20316;-75
2022/10/09 13:51:19;;;;;;;1.67;0.90;;;;;;;;;;5016893;28;20221;-75
2022/10/09 13:53:45;;;;;;;5.97;1.10;;;;;;;;;;4983875;28;20233;-76
2022/10/09 13:56:10;;;;;;;4.82;1.55;;;;;;;;;;5000995;28;20255;-75
2022/10/09 13:58:38;;;;;;;4.90;1.10;;;;;;;;;;5007713;28;20220;-76
2022/10/09 14:01:07;;;;;;;2.42;1.27;;;;;;;;;;4999116;28;20228;-76
2022/10/09 14:03:37;;;;;;;3.13;1.20;;;;;;;;;;5001068;28;20236;-76
2022/10/09 14:06:03;;;;;;;2.08;0.90;;;;;;;;;;4998331;28;20236;-75
2022/10/09 14:08:33;;;;;;;4.00;1.20;;;;;;;;;;5001592;28;20220;-76
2022/10/09 14:11:01;;;;;;;2.78;1.08;;;;;;;;;;5002030;28;20224;-76
2022/10/09 14:13:30;;;;;;;5.90;1.20;;;;;;;;;;4986203;28;20242;-77
2022/10/09 14:15:57;;;;;;;2.10;0.98;;;;;;;;;;5012327;28;20227;-76
2022/10/09 14:18:23;;;;;;;4.65;1.20;;;;;;;;;;4982461;28;20224;-75
2022/10/09 14:20:48;;;;;;;2.42;1.05;;;;;;;;;;4985725;28;20235;-76
2022/10/09 14:23:14;;;;;;;1.55;1.00;;;;;;;;;;4999584;28;20317;-76
2022/10/09 14:25:42;;;;;;;1.23;0.80;;;;;;;;;;5013461;28;20217;-76
2022/10/09 14:28:10;;;;;;;2.60;1.10;;;;;;;;;;5000701;28;20712;-76
2022/10/09 14:30:39;;;;;;;4.20;1.10;;;;;;;;;;5013983;28;20714;-75
2022/10/09 14:33:05;;;;;;;1.92;0.93;;;;;;;;;;5008474;28;20227;-75
2022/10/09 14:35:30;;;;;;;1.92;0.95;;;;;;;;;;5009479;28;20216;-76
2022/10/09 14:37:56;;;;;;;1.42;1.10;;;;;;;;;;5014597;28;20227;-75
2022/10/09 14:40:21;;;;;;;2.72;1.13;;;;;;;;;;4997283;28;20303;-76
2022/10/09 14:42:46;;;;;;;2.38;1.00;;;;;;;;;;4986092;28;20228;-75
2022/10/09 14:45:12;;;;;;;2.47;1.17;;;;;;;;;;5013265;28;20291;-74
2022/10/09 14:47:37;;;;;;;6.43;1.50;;;;;;;;;;4997738;28;20837;-73
2022/10/09 14:50:08;;;;;;;4.90;1.08;;;;;;;;;;4996336;28;20771;-75
2022/10/09 14:52:38;;;;;;;1.58;0.95;;;;;;;;;;5030819;28;20231;-76
2022/10/09 14:55:06;;;;;;;3.00;0.93;;;;;;;;;;5002040;28;20240;-76
2022/10/09 14:57:34;;;;;;;1.42;0.70;;;;;;;;;;4994700;28;20218;-75
2022/10/09 15:00:00;;;;;;;3.45;1.00;;;;;;;;;;5000326;28;20246;-76
2022/10/09 15:02:28;;;;;;;3.10;1.00;;;;;;;;;;4983864;28;20212;-73